Time,TemperatureF,DewpointF,PressureIn,WindDirection,WindDirectionDegrees,WindSpeedMPH,WindSpeedGustMPH,Humidity,HourlyPrecipIn,Conditions,Clouds,dailyrainin,SoftwareType,DateUTC
2013-09-27 00:11:00,58.0,55.0,30.02,SSE,167,0.0,-999.0,88,-99.99,,,0.00,weatherlink.com 1.10,2013-09-27 04:11:00,
2013-09-27 00:26:00,57.7,55.0,30.02,SSE,167,0.0,-999.0,89,-99.99,,,0.00,weatherlink.com 1.10,2013-09-27 04:26:00,
2013-09-27 00:41:00,57.4,54.0,30.02,SSE,167,0.0,-999.0,89,-99.99,,,0.00,weatherlink.com 1.10,2013-09-27 04:41:00,
2013-09-27 00:56:00,57.1,54.0,30.02,SSE,167,0.0,-999.0,89,-99.99,,,0.00,weatherlink.com 1.10,2013-09-27 04:56:00,
2013-09-27 01:11:00,56.8,54.0,30.02,SSE,167,0.0,-999.0,90,-99.99,,,0.00,weatherlink.com 1.10,2013-09-27 05:11:00,
2013-09-27 01:26:00,56.5,54.0,30.02,SSE,167,0.0,-999.0,90,-99.99,,,0.00,weatherlink.com 1.10,2013-09-27 05:26:00,
2013-09-27 01:42:00,56.2,54.0,30.03,SSE,167,0.0,-999.0,91,-99.99,,,0.00,weatherlink.com 1.10,2013-09-27 05:42:00,
2013-09-27 01:57:00,56.0,54.0,30.03,SSE,167,0.0,-999.0,92,-99.99,,,0.00,weatherlink.com 1.10,2013-09-27 05:57:00,
2013-09-27 02:12:00,55.9,54.0,30.03,SSE,167,0.0,-999.0,92,-99.99,,,0.00,weatherlink.com 1.10,2013-09-27 06:12:00,
2013-09-27 02:27:00,55.8,54.0,30.03,SSE,167,0.0,-999.0,93,-99.99,,,0.00,weatherlink.com 1.10,2013-09-27 06:27:00,
2013-09-27 02:42:00,55.6,54.0,30.03,SSE,167,0.0,-999.0,93,-99.99,,,0.00,weatherlink.com 1.10,2013-09-27 06:42:00,
2013-09-27 02:57:00,55.5,54.0,30.03,SSE,167,0.0,-999.0,93,-99.99,,,0.00,weatherlink.com 1.10,2013-09-27 06:57:00,
2013-09-27 03:12:00,55.4,54.0,30.03,SSE,167,0.0,-999.0,94,-99.99,,,0.00,weatherlink.com 1.10,2013-09-27 07:12:00,
2013-09-27 03:27:00,55.3,54.0,30.03,SSE,167,0.0,-999.0,94,-99.99,,,0.00,weatherlink.com 1.10,2013-09-27 07:27:00,
2013-09-27 03:42:00,55.1,54.0,30.03,SSE,167,0.0,-999.0,94,-99.99,,,0.00,weatherlink.com 1.10,2013-09-27 07:42:00,
2013-09-27 03:57:00,55.0,53.0,30.03,SSE,167,0.0,-999.0,94,-99.99,,,0.00,weatherlink.com 1.10,2013-09-27 07:57:00,
2013-09-27 04:12:00,55.0,53.0,30.03,SSE,167,0.0,-999.0,94,-99.99,,,0.00,weatherlink.com 1.10,2013-09-27 08:12:00,
2013-09-27 04:27:00,54.9,54.0,30.04,SSE,167,0.0,-999.0,95,-99.99,,,0.00,weatherlink.com 1.10,2013-09-27 08:27:00,
2013-09-27 04:42:00,54.9,54.0,30.04,SSE,167,0.0,-999.0,95,-99.99,,,0.00,weatherlink.com 1.10,2013-09-27 08:42:00,
2013-09-27 04:57:00,54.8,53.0,30.04,SSE,167,0.0,-999.0,95,-99.99,,,0.00,weatherlink.com 1.10,2013-09-27 08:57:00,
2013-09-27 05:12:00,54.7,53.0,30.05,SSE,167,0.0,-999.0,95,-99.99,,,0.00,weatherlink.com 1.10,2013-09-27 09:12:00,
2013-09-27 05:27:00,54.6,53.0,30.05,SSE,167,0.0,-999.0,95,-99.99,,,0.00,weatherlink.com 1.10,2013-09-27 09:27:00,
2013-09-27 05:42:00,54.4,53.0,30.06,SSE,167,0.0,-999.0,95,-99.99,,,0.00,weatherlink.com 1.10,2013-09-27 09:42:00,
2013-09-27 05:57:00,54.4,53.0,30.06,SSE,167,0.0,-999.0,95,-99.99,,,0.00,weatherlink.com 1.10,2013-09-27 09:57:00,
2013-09-27 06:12:00,54.4,53.0,30.07,SSE,167,0.0,-999.0,95,-99.99,,,0.00,weatherlink.com 1.10,2013-09-27 10:12:00,
2013-09-27 06:27:00,54.3,53.0,30.07,SSE,167,0.0,-999.0,96,-99.99,,,0.00,weatherlink.com 1.10,2013-09-27 10:27:00,
2013-09-27 06:42:00,54.2,53.0,30.07,SSE,167,0.0,-999.0,96,-99.99,,,0.00,weatherlink.com 1.10,2013-09-27 10:42:00,
2013-09-27 06:57:00,54.2,53.0,30.08,SSE,167,0.0,-999.0,96,-99.99,,,0.00,weatherlink.com 1.10,2013-09-27 10:57:00,
2013-09-27 07:12:00,54.1,53.0,30.09,SSE,167,0.0,-999.0,96,-99.99,,,0.00,weatherlink.com 1.10,2013-09-27 11:12:00,
2013-09-27 07:27:00,54.1,53.0,30.09,SSE,167,0.0,-999.0,96,-99.99,,,0.00,weatherlink.com 1.10,2013-09-27 11:27:00,
2013-09-27 07:42:00,54.3,53.0,30.10,SSE,167,0.0,-999.0,96,-99.99,,,0.00,weatherlink.com 1.10,2013-09-27 11:42:00,
2013-09-27 07:57:00,55.0,54.0,30.10,South,180,0.0,-999.0,97,-99.99,,,0.00,weatherlink.com 1.10,2013-09-27 11:57:00,
2013-09-27 08:12:00,55.8,55.0,30.11,South,180,0.0,-999.0,98,-99.99,,,0.00,weatherlink.com 1.10,2013-09-27 12:12:00,
2013-09-27 08:27:00,56.8,56.0,30.11,South,180,0.0,-999.0,98,-99.99,,,0.00,weatherlink.com 1.10,2013-09-27 12:27:00,
2013-09-27 08:42:00,58.0,58.0,30.11,South,180,0.0,-999.0,98,-99.99,,,0.00,weatherlink.com 1.10,2013-09-27 12:42:00,
2013-09-27 08:57:00,59.1,59.0,30.12,South,180,0.0,-999.0,98,-99.99,,,0.00,weatherlink.com 1.10,2013-09-27 12:57:00,
2013-09-27 09:12:00,60.7,60.0,30.12,South,180,0.0,-999.0,98,-99.99,,,0.00,weatherlink.com 1.10,2013-09-27 13:12:00,
2013-09-27 09:27:00,62.1,61.0,30.13,South,180,0.0,-999.0,95,-99.99,,,0.00,weatherlink.com 1.10,2013-09-27 13:27:00,
2013-09-27 09:42:00,63.2,61.0,30.13,South,180,0.0,-999.0,93,-99.99,,,0.00,weatherlink.com 1.10,2013-09-27 13:42:00,
2013-09-27 09:57:00,64.0,61.0,30.14,South,180,0.0,-999.0,91,-99.99,,,0.00,weatherlink.com 1.10,2013-09-27 13:57:00,
2013-09-27 10:11:00,64.5,61.0,30.14,South,180,0.0,-999.0,89,-99.99,,,0.00,weatherlink.com 1.10,2013-09-27 14:11:00,
2013-09-27 10:26:00,65.7,62.0,30.14,South,180,0.0,-999.0,89,-99.99,,,0.00,weatherlink.com 1.10,2013-09-27 14:26:00,
2013-09-27 10:41:00,67.0,61.0,30.14,SSE,156,0.0,-999.0,82,-99.99,,,0.00,weatherlink.com 1.10,2013-09-27 14:41:00,
2013-09-27 10:56:00,68.9,63.0,30.14,SSW,194,0.0,-999.0,80,-99.99,,,0.00,weatherlink.com 1.10,2013-09-27 14:56:00,
2013-09-27 11:11:00,69.6,60.0,30.15,SE,130,0.0,-999.0,72,-99.99,,,0.00,weatherlink.com 1.10,2013-09-27 15:11:00,
2013-09-27 11:26:00,70.7,62.0,30.14,South,175,0.0,-999.0,74,-99.99,,,0.00,weatherlink.com 1.10,2013-09-27 15:26:00,
2013-09-27 11:41:00,72.6,61.0,30.14,SSE,160,0.0,-999.0,68,-99.99,,,0.00,weatherlink.com 1.10,2013-09-27 15:41:00,
2013-09-27 11:56:00,72.2,60.0,30.14,SSE,162,0.0,-999.0,66,-99.99,,,0.00,weatherlink.com 1.10,2013-09-27 15:56:00,
2013-09-27 12:11:00,72.0,60.0,30.15,South,173,0.0,-999.0,66,-99.99,,,0.00,weatherlink.com 1.10,2013-09-27 16:11:00,
2013-09-27 12:26:00,71.1,61.0,30.14,South,173,0.0,-999.0,70,-99.99,,,0.00,weatherlink.com 1.10,2013-09-27 16:26:00,
2013-09-27 12:41:00,72.9,60.0,30.14,SE,144,0.0,-999.0,65,-99.99,,,0.00,weatherlink.com 1.10,2013-09-27 16:41:00,
2013-09-27 12:56:00,72.4,60.0,30.14,SSE,153,0.0,-999.0,66,-99.99,,,0.00,weatherlink.com 1.10,2013-09-27 16:56:00,
2013-09-27 13:11:00,73.1,61.0,30.13,SSE,155,0.0,-999.0,66,-99.99,,,0.00,weatherlink.com 1.10,2013-09-27 17:11:00,
2013-09-27 13:26:00,73.4,59.0,30.13,South,182,0.0,-999.0,60,-99.99,,,0.00,weatherlink.com 1.10,2013-09-27 17:26:00,
2013-09-27 13:41:00,74.8,59.0,30.12,SSE,151,0.0,-999.0,59,-99.99,,,0.00,weatherlink.com 1.10,2013-09-27 17:41:00,
2013-09-27 13:56:00,75.6,60.0,30.11,SSE,153,0.0,-999.0,58,-99.99,,,0.00,weatherlink.com 1.10,2013-09-27 17:56:00,
2013-09-27 14:12:00,75.7,59.0,30.11,SE,125,0.0,-999.0,57,-99.99,,,0.00,weatherlink.com 1.10,2013-09-27 18:12:00,
2013-09-27 14:27:00,74.7,59.0,30.11,SSE,147,0.0,-999.0,58,-99.99,,,0.00,weatherlink.com 1.10,2013-09-27 18:27:00,
2013-09-27 14:42:00,75.0,59.0,30.10,SSE,160,0.0,-999.0,57,-99.99,,,0.00,weatherlink.com 1.10,2013-09-27 18:42:00,
2013-09-27 14:57:00,73.8,59.0,30.10,South,184,0.0,-999.0,60,-99.99,,,0.00,weatherlink.com 1.10,2013-09-27 18:57:00,
2013-09-27 15:12:00,76.2,59.0,30.10,SSE,166,0.0,-999.0,56,-99.99,,,0.00,weatherlink.com 1.10,2013-09-27 19:12:00,
2013-09-27 15:27:00,75.5,58.0,30.10,South,171,0.0,-999.0,54,-99.99,,,0.00,weatherlink.com 1.10,2013-09-27 19:27:00,
2013-09-27 15:42:00,73.9,57.0,30.10,SSE,165,0.0,-999.0,56,-99.99,,,0.00,weatherlink.com 1.10,2013-09-27 19:42:00,
2013-09-27 15:57:00,74.7,58.0,30.10,SSE,163,0.0,-999.0,57,-99.99,,,0.00,weatherlink.com 1.10,2013-09-27 19:57:00,
2013-09-27 16:12:00,74.7,57.0,30.10,SE,130,0.0,-999.0,55,-99.99,,,0.00,weatherlink.com 1.10,2013-09-27 20:12:00,
2013-09-27 16:27:00,72.8,57.0,30.10,SSE,157,0.0,-999.0,59,-99.99,,,0.00,weatherlink.com 1.10,2013-09-27 20:27:00,
2013-09-27 16:42:00,72.0,57.0,30.10,SSE,163,0.0,-999.0,60,-99.99,,,0.00,weatherlink.com 1.10,2013-09-27 20:42:00,
2013-09-27 16:57:00,72.1,57.0,30.11,SE,129,2.0,-999.0,59,-99.99,,,0.00,weatherlink.com 1.10,2013-09-27 20:57:00,
2013-09-27 17:12:00,71.5,58.0,30.11,SSE,151,0.0,-999.0,62,-99.99,,,0.00,weatherlink.com 1.10,2013-09-27 21:12:00,
2013-09-27 17:27:00,71.3,57.0,30.11,SE,124,0.0,-999.0,61,-99.99,,,0.00,weatherlink.com 1.10,2013-09-27 21:27:00,
2013-09-27 17:42:00,71.2,57.0,30.11,South,173,0.0,-999.0,62,-99.99,,,0.00,weatherlink.com 1.10,2013-09-27 21:42:00,
2013-09-27 17:57:00,70.5,57.0,30.11,SE,137,0.0,-999.0,62,-99.99,,,0.00,weatherlink.com 1.10,2013-09-27 21:57:00,
2013-09-27 18:12:00,69.6,57.0,30.11,SSE,165,0.0,-999.0,64,-99.99,,,0.00,weatherlink.com 1.10,2013-09-27 22:12:00,
2013-09-27 18:27:00,68.9,57.0,30.11,SSE,165,0.0,-999.0,67,-99.99,,,0.00,weatherlink.com 1.10,2013-09-27 22:27:00,
2013-09-27 18:42:00,68.1,57.0,30.12,SSE,165,0.0,-999.0,68,-99.99,,,0.00,weatherlink.com 1.10,2013-09-27 22:42:00,
2013-09-27 18:56:00,67.2,57.0,30.12,SSE,165,0.0,-999.0,71,-99.99,,,0.00,weatherlink.com 1.10,2013-09-27 22:56:00,
2013-09-27 19:11:00,66.3,57.0,30.12,SSE,165,0.0,-999.0,72,-99.99,,,0.00,weatherlink.com 1.10,2013-09-27 23:11:00,
2013-09-27 19:26:00,65.4,57.0,30.12,SSE,165,0.0,-999.0,73,-99.99,,,0.00,weatherlink.com 1.10,2013-09-27 23:26:00,
2013-09-27 19:41:00,64.4,56.0,30.13,SSE,165,0.0,-999.0,75,-99.99,,,0.00,weatherlink.com 1.10,2013-09-27 23:41:00,
2013-09-27 19:56:00,63.4,56.0,30.13,SSE,165,0.0,-999.0,77,-99.99,,,0.00,weatherlink.com 1.10,2013-09-27 23:56:00,
2013-09-27 20:11:00,62.7,56.0,30.13,SSE,165,0.0,-999.0,78,-99.99,,,0.00,weatherlink.com 1.10,2013-09-28 00:11:00,
2013-09-27 20:26:00,62.0,56.0,30.13,SSE,165,0.0,-999.0,80,-99.99,,,0.00,weatherlink.com 1.10,2013-09-28 00:26:00,
2013-09-27 20:41:00,61.3,56.0,30.14,SSE,165,0.0,-999.0,82,-99.99,,,0.00,weatherlink.com 1.10,2013-09-28 00:41:00,
2013-09-27 20:56:00,60.8,55.0,30.14,SSE,165,0.0,-999.0,82,-99.99,,,0.00,weatherlink.com 1.10,2013-09-28 00:56:00,
2013-09-27 21:11:00,60.3,55.0,30.15,SSE,165,0.0,-999.0,83,-99.99,,,0.00,weatherlink.com 1.10,2013-09-28 01:11:00,
2013-09-27 21:26:00,59.8,55.0,30.15,SSE,165,0.0,-999.0,83,-99.99,,,0.00,weatherlink.com 1.10,2013-09-28 01:26:00,
2013-09-27 21:41:00,59.3,55.0,30.16,SSE,165,0.0,-999.0,85,-99.99,,,0.00,weatherlink.com 1.10,2013-09-28 01:41:00,
2013-09-27 21:56:00,58.9,55.0,30.16,SSE,165,0.0,-999.0,86,-99.99,,,0.00,weatherlink.com 1.10,2013-09-28 01:56:00,
2013-09-27 22:11:00,58.5,55.0,30.16,SSE,165,0.0,-999.0,87,-99.99,,,0.00,weatherlink.com 1.10,2013-09-28 02:11:00,
2013-09-27 22:26:00,58.1,55.0,30.16,SSE,165,0.0,-999.0,88,-99.99,,,0.00,weatherlink.com 1.10,2013-09-28 02:26:00,
2013-09-27 22:41:00,57.8,55.0,30.17,SSE,165,0.0,-999.0,89,-99.99,,,0.00,weatherlink.com 1.10,2013-09-28 02:41:00,
2013-09-27 22:56:00,57.4,54.0,30.17,SSE,165,0.0,-999.0,89,-99.99,,,0.00,weatherlink.com 1.10,2013-09-28 02:56:00,
2013-09-27 23:11:00,57.1,54.0,30.17,SSE,165,0.0,-999.0,90,-99.99,,,0.00,weatherlink.com 1.10,2013-09-28 03:11:00,
2013-09-27 23:26:00,56.9,54.0,30.18,SSE,165,0.0,-999.0,91,-99.99,,,0.00,weatherlink.com 1.10,2013-09-28 03:26:00,
2013-09-27 23:41:00,56.8,54.0,30.17,SSE,165,0.0,-999.0,90,-99.99,,,0.00,weatherlink.com 1.10,2013-09-28 03:41:00,
2013-09-27 23:56:00,56.5,54.0,30.18,SSE,165,0.0,-999.0,91,-99.99,,,0.00,weatherlink.com 1.10,2013-09-28 03:56:00,